createdAt,value
2022-11-03T00:02:26.867Z,101836.13
2022-11-03T00:05:03.340Z,101957.91
2022-11-03T00:07:29.997Z,101871.34
2022-11-03T00:10:00.237Z,101957.78
2022-11-03T00:12:30.129Z,101866.00
2022-11-03T00:15:02.777Z,101923.47
2022-11-03T00:17:31.337Z,101890.94
2022-11-03T00:19:58.210Z,101834.13
2022-11-03T00:22:32.127Z,101807.63
2022-11-03T00:25:04.617Z,101918.25
2022-11-03T00:27:31.570Z,101915.56
2022-11-03T00:29:58.175Z,101949.97
2022-11-03T00:32:24.843Z,101889.09
2022-11-03T00:34:52.397Z,101943.78
2022-11-03T00:37:19.032Z,101948.84
2022-11-03T00:39:45.638Z,101931.94
2022-11-03T00:42:17.761Z,101945.31
2022-11-03T00:44:44.394Z,101919.56
2022-11-03T00:47:11.084Z,101954.22
2022-11-03T00:49:39.646Z,101929.69
2022-11-03T00:52:11.349Z,101889.50
2022-11-03T00:54:41.817Z,101955.34
2022-11-03T00:57:17.255Z,101954.22
2022-11-03T00:59:47.110Z,101804.53
2022-11-03T01:02:13.967Z,101800.03
2022-11-03T01:05:04.741Z,101775.78
2022-11-03T01:07:31.558Z,101949.84
2022-11-03T01:09:59.959Z,101814.41
2022-11-03T01:12:27.909Z,101896.00
2022-11-03T01:14:54.693Z,101892.22
2022-11-03T01:17:34.311Z,101934.50
2022-11-03T01:20:02.649Z,101908.69
2022-11-03T01:22:30.609Z,101928.16
2022-11-03T01:25:05.446Z,101934.22
2022-11-03T01:27:35.169Z,101921.53
2022-11-03T01:30:02.076Z,101851.19
2022-11-03T01:32:29.686Z,101841.50
2022-11-03T01:34:56.380Z,101782.09
2022-11-03T01:37:27.143Z,101891.66
2022-11-03T01:39:53.777Z,101901.66
2022-11-03T01:42:20.504Z,101911.78
2022-11-03T01:44:55.814Z,101906.31
2022-11-03T01:47:35.313Z,101911.78
2022-11-03T01:50:11.172Z,101907.97
2022-11-03T01:52:58.699Z,101820.63
2022-11-03T01:55:31.724Z,101905.31
2022-11-03T01:58:02.959Z,101834.53
2022-11-03T02:00:32.208Z,101902.63
2022-11-03T02:03:00.141Z,101806.81
2022-11-03T02:05:29.850Z,101831.88
2022-11-03T02:08:14.259Z,101840.47
2022-11-03T02:10:41.385Z,101796.09
2022-11-03T02:13:19.759Z,101840.63
2022-11-03T02:15:50.565Z,101895.31
2022-11-03T02:18:23.935Z,101894.34
2022-11-03T02:21:10.551Z,101793.81
2022-11-03T02:24:15.068Z,101885.72
2022-11-03T02:26:44.469Z,101793.00
2022-11-03T02:29:12.450Z,101874.16
2022-11-03T02:31:50.043Z,101875.59
2022-11-03T02:34:31.602Z,101637.19
2022-11-03T02:37:21.759Z,101830.06
2022-11-03T02:39:58.512Z,101865.41
2022-11-03T02:42:26.286Z,101829.63
2022-11-03T02:45:01.085Z,101854.16
2022-11-03T02:47:39.708Z,101787.06
2022-11-03T02:50:10.612Z,101835.53
2022-11-03T02:52:45.996Z,101852.44
2022-11-03T02:55:45.877Z,101802.28
2022-11-03T02:58:36.114Z,101854.69
2022-11-03T03:01:15.276Z,101716.59
2022-11-03T03:03:52.668Z,101653.81
2022-11-03T03:06:38.168Z,101808.47
2022-11-03T03:09:17.332Z,101852.44
2022-11-03T03:11:51.208Z,101818.63
2022-11-03T03:14:35.769Z,101817.63
2022-11-03T03:17:37.472Z,101854.16
2022-11-03T03:20:26.965Z,101807.75
2022-11-03T03:23:30.174Z,101843.69
2022-11-03T03:26:36.609Z,101845.81
2022-11-03T03:29:22.163Z,101835.13
2022-11-03T03:32:11.419Z,101857.38
2022-11-03T03:34:44.702Z,101838.34
2022-11-03T03:37:21.589Z,101836.13
2022-11-03T03:40:07.049Z,101858.81
2022-11-03T03:42:39.522Z,101691.53
2022-11-03T03:45:08.662Z,101767.59
2022-11-03T03:47:36.178Z,101855.00
2022-11-03T03:50:07.718Z,101838.09
2022-11-03T03:52:36.076Z,101791.69
2022-11-03T03:55:06.826Z,101766.53
2022-11-03T03:57:36.879Z,101849.63
2022-11-03T04:00:10.315Z,101787.66
2022-11-03T04:02:37.109Z,101794.53
2022-11-03T04:05:04.305Z,101852.31
2022-11-03T04:07:50.895Z,101833.28
2022-11-03T04:10:19.927Z,101741.69
2022-11-03T04:13:09.792Z,101860.06
2022-11-03T04:15:59.193Z,101760.00
2022-11-03T04:18:48.342Z,101826.25
2022-11-03T04:21:38.834Z,101837.09
2022-11-03T04:24:06.449Z,101795.50
2022-11-03T04:26:33.209Z,101870.22
2022-11-03T04:29:01.536Z,101864.84
2022-11-03T04:31:45.024Z,101809.34
2022-11-03T04:34:15.491Z,101866.53
2022-11-03T04:36:42.071Z,101861.75
2022-11-03T04:39:29.828Z,101843.13
2022-11-03T04:42:10.612Z,101855.69
2022-11-03T04:44:39.526Z,101819.91
2022-11-03T04:47:13.632Z,101840.47
2022-11-03T04:49:41.124Z,101838.63
2022-11-03T04:52:19.031Z,101832.44
2022-11-03T04:54:50.948Z,101830.47
2022-11-03T04:57:27.283Z,101844.28
2022-11-03T05:00:02.687Z,101763.38
2022-11-03T05:02:41.724Z,101795.50
2022-11-03T05:05:25.475Z,101831.31
2022-11-03T05:08:08.728Z,101683.09
2022-11-03T05:10:36.283Z,101833.56
2022-11-03T05:13:03.128Z,101839.75
2022-11-03T05:15:34.764Z,101829.88
2022-11-03T05:18:22.549Z,101782.28
2022-11-03T05:20:56.541Z,101788.19
2022-11-03T05:23:27.145Z,101807.06
2022-11-03T05:25:56.627Z,101768.72
2022-11-03T05:28:39.042Z,101774.94
2022-11-03T05:31:33.542Z,101770.16
2022-11-03T05:34:23.270Z,101805.53
2022-11-03T05:37:01.641Z,101764.94
2022-11-03T05:39:46.464Z,101827.91
2022-11-03T05:42:33.897Z,101805.53
2022-11-03T05:45:24.909Z,101644.97
2022-11-03T05:47:58.361Z,101814.50
2022-11-03T05:50:28.164Z,101685.09
2022-11-03T05:53:18.474Z,101827.34
2022-11-03T05:55:48.515Z,101815.22
2022-11-03T05:58:25.983Z,101823.66
2022-11-03T06:00:53.466Z,101833.25
2022-11-03T06:03:30.676Z,101787.75
2022-11-03T06:06:02.464Z,101832.09
2022-11-03T06:08:39.037Z,101717.19
2022-11-03T06:11:15.814Z,101824.22
2022-11-03T06:13:45.278Z,101587.41
2022-11-03T06:16:22.271Z,101678.31
2022-11-03T06:18:50.038Z,101725.75
2022-11-03T06:21:24.650Z,101641.41
2022-11-03T06:23:58.576Z,101680.84
2022-11-03T06:26:33.512Z,101609.31
2022-11-03T06:29:02.675Z,101679.44
2022-11-03T06:31:37.340Z,101656.34
2022-11-03T06:34:19.893Z,101633.81
2022-11-03T06:36:57.333Z,101698.16
2022-11-03T06:39:25.179Z,101813.06
2022-11-03T06:41:55.809Z,101783.50
2022-11-03T06:44:26.154Z,101745.34
2022-11-03T06:47:07.991Z,101616.94
2022-11-03T06:49:36.028Z,101827.59
2022-11-03T06:52:23.606Z,101829.56
2022-11-03T06:55:04.076Z,101830.44
2022-11-03T06:57:35.362Z,101760.25
2022-11-03T07:00:20.502Z,101805.19
2022-11-03T07:02:56.292Z,101764.22
2022-11-03T07:05:28.383Z,101820.81
2022-11-03T07:07:59.795Z,101836.44
2022-11-03T07:10:30.220Z,101801.38
2022-11-03T07:13:07.434Z,101808.41
2022-11-03T07:15:40.193Z,101849.53
2022-11-03T07:18:29.729Z,101846.84
2022-11-03T07:21:05.130Z,101803.88
2022-11-03T07:23:31.922Z,101845.56
2022-11-03T07:26:04.452Z,101850.34
2022-11-03T07:28:38.958Z,101851.19
2022-11-03T07:31:25.304Z,101839.91
2022-11-03T07:33:58.629Z,101840.75
2022-11-03T07:36:31.311Z,101854.00
2022-11-03T07:39:04.611Z,101802.97
2022-11-03T07:41:34.566Z,101731.47
2022-11-03T07:44:02.299Z,101861.34
2022-11-03T07:46:29.456Z,101849.63
2022-11-03T07:49:04.122Z,101868.09
2022-11-03T07:51:37.606Z,101792.41
2022-11-03T07:54:21.308Z,101750.59
2022-11-03T07:56:57.730Z,101816.75
2022-11-03T07:59:38.809Z,101794.34
2022-11-03T08:02:27.009Z,101841.84
2022-11-03T08:04:58.915Z,101825.22
2022-11-03T08:07:28.813Z,101833.66
2022-11-03T08:09:56.111Z,101845.44
2022-11-03T08:12:23.185Z,101798.66
2022-11-03T08:14:50.055Z,101838.31
2022-11-03T08:17:21.148Z,101841.16
2022-11-03T08:19:48.041Z,101844.50
2022-11-03T08:22:14.639Z,101822.44
2022-11-03T08:24:41.328Z,101827.56
2022-11-03T08:27:09.312Z,101816.00
2022-11-03T08:29:37.979Z,101819.13
2022-11-03T08:32:07.067Z,101825.44
2022-11-03T08:34:44.469Z,101827.81
2022-11-03T08:37:11.339Z,101825.16
2022-11-03T08:39:40.301Z,101790.91
2022-11-03T08:42:06.917Z,101793.00
2022-11-03T08:44:33.494Z,101762.59
2022-11-03T08:47:01.369Z,101811.28
2022-11-03T08:49:28.678Z,101802.91
2022-11-03T08:51:57.895Z,101770.78
2022-11-03T08:54:24.686Z,101767.84
2022-11-03T08:56:51.342Z,101756.72
2022-11-03T08:59:20.810Z,101755.38
2022-11-03T09:01:52.888Z,101731.41
2022-11-03T09:04:19.792Z,101660.28
2022-11-03T09:06:51.009Z,101793.31
2022-11-03T09:12:07.113Z,101790.03
2022-11-03T09:14:33.882Z,101794.66
2022-11-03T09:19:28.214Z,101743.09
2022-11-03T09:21:54.969Z,101762.81
2022-11-03T09:24:29.332Z,101774.31
2022-11-03T09:27:02.479Z,101776.19
2022-11-03T09:29:51.567Z,101735.19
2022-11-03T09:32:22.993Z,101713.50
2022-11-03T09:34:55.266Z,101705.75
2022-11-03T09:37:25.651Z,101690.66
2022-11-03T09:39:52.551Z,101757.13
2022-11-03T09:42:19.425Z,101726.59
2022-11-03T09:44:50.471Z,101754.44
2022-11-03T09:47:30.811Z,101749.16
2022-11-03T09:49:58.872Z,101757.97
2022-11-03T09:52:28.353Z,101701.56
2022-11-03T09:54:57.126Z,101747.78
2022-11-03T09:57:27.499Z,101715.56
2022-11-03T10:00:02.353Z,101725.84
2022-11-03T10:02:32.336Z,101696.47
2022-11-03T10:05:10.985Z,101711.44
2022-11-03T10:07:44.285Z,101689.34
2022-11-03T10:10:20.610Z,101730.44
2022-11-03T10:13:00.211Z,101612.56
2022-11-03T10:15:30.137Z,101599.91
2022-11-03T10:17:58.324Z,101716.94
2022-11-03T10:20:25.111Z,101663.03
2022-11-03T10:22:54.981Z,101686.72
2022-11-03T10:25:38.952Z,101706.13
2022-11-03T10:28:33.243Z,101701.94
2022-11-03T10:31:26.442Z,101650.44
2022-11-03T10:36:36.361Z,101671.41
2022-11-03T10:39:31.356Z,101683.22
2022-11-03T10:41:59.977Z,101588.84
2022-11-03T10:44:34.056Z,101679.22
2022-11-03T10:47:03.442Z,101643.19
2022-11-03T10:49:42.435Z,101641.16
2022-11-03T10:52:30.721Z,101578.75
2022-11-03T10:54:59.776Z,101633.41
2022-11-03T10:57:36.330Z,101651.41
2022-11-03T11:00:04.134Z,101659.16
2022-11-03T11:02:32.659Z,101603.84
2022-11-03T11:05:02.335Z,101626.31
2022-11-03T11:07:42.022Z,101649.41
2022-11-03T11:10:20.201Z,101573.94
2022-11-03T11:13:23.639Z,101661.28
2022-11-03T11:15:54.315Z,101652.75
2022-11-03T11:18:36.404Z,101656.00
2022-11-03T11:21:30.774Z,101641.63
2022-11-03T11:24:01.749Z,101655.09
2022-11-03T11:26:47.299Z,101647.91
2022-11-03T11:29:15.755Z,101632.25
2022-11-03T11:31:43.675Z,101606.66
2022-11-03T11:34:11.902Z,101568.41
2022-11-03T11:36:50.375Z,101517.38
2022-11-03T11:39:20.961Z,101628.91
2022-11-03T11:42:14.196Z,101580.41
2022-11-03T11:44:53.376Z,101579.56
2022-11-03T11:47:23.190Z,101629.44
2022-11-03T11:50:21.252Z,101627.06
2022-11-03T11:52:58.436Z,101619.22
2022-11-03T11:55:25.185Z,101621.91
2022-11-03T11:57:53.637Z,101616.88
2022-11-03T12:00:34.950Z,101611.00
2022-11-03T12:03:08.460Z,101610.09
2022-11-03T12:05:38.975Z,101570.75
2022-11-03T12:08:32.257Z,101595.16
2022-11-03T12:11:04.836Z,101588.25
2022-11-03T12:13:52.652Z,101572.13
2022-11-03T12:16:41.169Z,101577.88
2022-11-03T12:19:39.126Z,101574.19
2022-11-03T12:22:09.288Z,101572.16
2022-11-03T12:24:48.596Z,101577.22
2022-11-03T12:27:24.764Z,101567.31
2022-11-03T12:29:56.945Z,101512.81
2022-11-03T12:32:33.949Z,101551.75
2022-11-03T12:35:08.713Z,101565.13
2022-11-03T12:37:41.202Z,101558.06
2022-11-03T12:40:08.570Z,101512.59
2022-11-03T12:42:35.387Z,101551.69
2022-11-03T12:45:03.575Z,101545.28
2022-11-03T12:47:33.649Z,101546.31
2022-11-03T12:50:03.307Z,101495.53
2022-11-03T12:52:31.617Z,101495.75
2022-11-03T12:54:58.643Z,101501.13
2022-11-03T12:57:25.527Z,101520.31
2022-11-03T12:59:52.614Z,101524.84
2022-11-03T13:02:19.642Z,101495.25
2022-11-03T13:04:52.291Z,101486.03
2022-11-03T13:07:24.983Z,101479.97
2022-11-03T13:09:58.544Z,101449.09
2022-11-03T13:12:35.308Z,101364.06
2022-11-03T13:15:10.755Z,101479.47
2022-11-03T13:17:59.691Z,101396.06
2022-11-03T13:20:24.675Z,101477.47
2022-11-03T13:22:51.663Z,101436.09
2022-11-03T13:25:18.998Z,101411.38
2022-11-03T13:27:49.137Z,101346.03
2022-11-03T13:30:18.937Z,101416.97
2022-11-03T13:32:48.564Z,101413.97
2022-11-03T13:35:19.948Z,101366.53
2022-11-03T13:37:46.891Z,101437.53
2022-11-03T13:40:35.858Z,101423.09
2022-11-03T13:43:01.670Z,101357.91
2022-11-03T13:45:30.017Z,101441.75
2022-11-03T13:48:52.485Z,101437.19
2022-11-03T13:50:44.763Z,101380.94
2022-11-03T13:56:05.266Z,101349.16
2022-11-03T14:01:26.166Z,101394.03
2022-11-03T14:06:40.409Z,101380.91
2022-11-03T14:09:07.465Z,101406.28
2022-11-03T14:11:55.808Z,101354.91
2022-11-03T14:14:29.394Z,101133.22
2022-11-03T14:16:57.014Z,101382.09
2022-11-03T14:19:33.351Z,101319.28
2022-11-03T14:22:06.433Z,101358.41
2022-11-03T14:24:34.019Z,101368.66
2022-11-03T14:27:02.359Z,101393.22
2022-11-03T14:29:37.430Z,101387.28
2022-11-03T14:32:05.675Z,101335.06
2022-11-03T14:34:37.428Z,101236.31
2022-11-03T14:37:06.769Z,101139.97
2022-11-03T14:39:33.641Z,101366.81
2022-11-03T14:42:04.255Z,101376.72
2022-11-03T14:44:44.407Z,101184.63
2022-11-03T14:47:13.368Z,101214.19
2022-11-03T14:49:40.639Z,101296.97
2022-11-03T14:52:07.974Z,101356.22
2022-11-03T14:54:38.909Z,101304.19
2022-11-03T14:57:06.199Z,101193.72
2022-11-03T14:59:37.676Z,101343.63
2022-11-03T15:02:06.197Z,101300.16
2022-11-03T15:04:33.728Z,101289.72
2022-11-03T15:07:07.220Z,101340.47
2022-11-03T15:09:37.447Z,101296.63
2022-11-03T15:12:05.563Z,101337.09
2022-11-03T15:14:32.526Z,101335.41
2022-11-03T15:17:03.477Z,101324.81
2022-11-03T15:19:34.183Z,101339.09
2022-11-03T15:22:04.902Z,101344.47
2022-11-03T15:27:20.973Z,101318.28
2022-11-03T15:29:47.841Z,101292.44
2022-11-03T15:32:17.115Z,101246.72
2022-11-03T15:34:44.016Z,101238.81
2022-11-03T15:37:11.595Z,101306.53
2022-11-03T15:39:42.115Z,101329.34
2022-11-03T15:42:13.789Z,101318.63
2022-11-03T15:44:43.103Z,101317.28
2022-11-03T15:47:10.488Z,101244.03
2022-11-03T15:49:39.460Z,101281.34
2022-11-03T15:52:06.792Z,101304.84
2022-11-03T15:54:36.255Z,101301.16
2022-11-03T15:57:09.932Z,101256.50
2022-11-03T15:59:40.073Z,101255.13
2022-11-03T16:02:14.238Z,101213.84
2022-11-03T16:04:54.998Z,101290.75
2022-11-03T16:07:33.498Z,101295.97
2022-11-03T16:10:06.598Z,101280.81
2022-11-03T16:12:41.895Z,101273.09
2022-11-03T16:15:09.563Z,101233.16
2022-11-03T16:17:39.112Z,101287.91
2022-11-03T16:20:13.654Z,101258.84
2022-11-03T16:22:40.675Z,101250.75
2022-11-03T16:25:12.349Z,101090.06
2022-11-03T16:27:43.575Z,101024.63
2022-11-03T16:30:11.736Z,101226.31
2022-11-03T16:32:38.421Z,101183.66
2022-11-03T16:35:22.162Z,101220.56
2022-11-03T16:37:52.032Z,101253.66
2022-11-03T16:40:19.849Z,101241.41
2022-11-03T16:42:49.161Z,101205.47
2022-11-03T16:45:26.704Z,101134.97
2022-11-03T16:47:55.780Z,101082.31
2022-11-03T16:50:22.485Z,101210.50
2022-11-03T16:52:51.042Z,101186.50
2022-11-03T16:55:19.120Z,101217.22
2022-11-03T16:57:50.028Z,101200.09
2022-11-03T17:02:52.287Z,101180.97
2022-11-03T17:05:21.029Z,100958.47
2022-11-03T17:07:53.266Z,101100.94
2022-11-03T17:10:23.162Z,101041.09
2022-11-03T17:12:50.433Z,101101.28
2022-11-03T17:15:21.348Z,101175.56
2022-11-03T17:17:47.995Z,101172.56
2022-11-03T17:20:16.356Z,101143.03
2022-11-03T17:22:46.244Z,101105.97
2022-11-03T17:25:15.822Z,101169.53
2022-11-03T17:28:03.594Z,101138.16
2022-11-03T17:30:35.135Z,101120.53
2022-11-03T17:33:07.158Z,101093.03
2022-11-03T17:35:42.342Z,101147.03
2022-11-03T17:38:16.420Z,101127.06
2022-11-03T17:40:46.166Z,101125.22
2022-11-03T17:43:21.728Z,101129.94
2022-11-03T17:45:49.134Z,101121.19
2022-11-03T17:48:16.132Z,101112.50
2022-11-03T17:50:46.963Z,101102.75
2022-11-03T17:53:34.257Z,101109.13
2022-11-03T17:58:52.432Z,101048.09
2022-11-03T18:01:25.119Z,101111.16
2022-11-03T18:03:59.593Z,101105.75
2022-11-03T18:06:26.876Z,101030.69
2022-11-03T18:08:56.142Z,101086.81
2022-11-03T18:11:52.932Z,100949.06
2022-11-03T18:14:20.660Z,101092.38
2022-11-03T18:16:48.464Z,101079.94
2022-11-03T18:19:17.167Z,100986.78
2022-11-03T18:21:47.831Z,101023.81
2022-11-03T18:24:24.955Z,101070.75
2022-11-03T18:26:51.843Z,101049.97
2022-11-03T18:29:19.493Z,101032.53
2022-11-03T18:31:51.136Z,101046.44
2022-11-03T18:34:28.261Z,101076.78
2022-11-03T18:36:55.398Z,101048.47
2022-11-03T18:39:27.754Z,100988.13
2022-11-03T18:42:03.312Z,101049.63
2022-11-03T18:44:34.621Z,101047.41
2022-11-03T18:47:01.700Z,101033.13
2022-11-03T18:49:34.333Z,101024.94
2022-11-03T18:52:10.648Z,101031.03
2022-11-03T18:54:50.501Z,101026.97
2022-11-03T18:57:26.661Z,101021.94
2022-11-03T18:59:53.308Z,100890.41
2022-11-03T19:02:23.129Z,100932.00
2022-11-03T19:04:50.412Z,101005.88
2022-11-03T19:07:29.903Z,100991.78
2022-11-03T19:10:00.244Z,100973.34
2022-11-03T19:12:30.597Z,100994.28
2022-11-03T19:15:00.204Z,100774.44
2022-11-03T19:17:30.790Z,100988.41
2022-11-03T19:20:00.474Z,100942.34
2022-11-03T19:22:27.122Z,100936.50
2022-11-03T19:24:57.040Z,100907.88
2022-11-03T19:27:31.334Z,100904.16
2022-11-03T19:30:00.501Z,100980.06
2022-11-03T19:32:31.740Z,100950.22
2022-11-03T19:35:06.911Z,100925.75
2022-11-03T19:37:36.097Z,100937.97
2022-11-03T19:40:14.690Z,100848.53
2022-11-03T19:42:41.471Z,100810.25
2022-11-03T19:45:14.858Z,100865.47
2022-11-03T19:48:10.725Z,100875.84
2022-11-03T19:50:36.785Z,100936.13
2022-11-03T19:53:06.218Z,100928.78
2022-11-03T19:55:38.277Z,100921.59
2022-11-03T19:58:18.167Z,100932.78
2022-11-03T20:00:52.226Z,100784.47
2022-11-03T20:03:23.232Z,100889.59
2022-11-03T20:05:58.732Z,100853.75
2022-11-03T20:08:29.046Z,100901.63
2022-11-03T20:11:01.030Z,100894.25
2022-11-03T20:13:40.980Z,100851.06
2022-11-03T20:16:21.422Z,100765.69
2022-11-03T20:18:49.079Z,100800.19
2022-11-03T20:21:38.249Z,100853.22
2022-11-03T20:24:07.959Z,100621.53
2022-11-03T20:26:37.481Z,100825.22
2022-11-03T20:29:12.291Z,100848.00
2022-11-03T20:31:49.784Z,100741.84
2022-11-03T20:34:18.827Z,100827.41
2022-11-03T20:36:48.794Z,100752.94
2022-11-03T20:39:18.784Z,100816.72
2022-11-03T20:41:48.442Z,100778.19
2022-11-03T20:44:30.251Z,100805.81
2022-11-03T20:46:56.873Z,100790.06
2022-11-03T20:49:24.029Z,100757.94
2022-11-03T20:51:58.288Z,100786.56
2022-11-03T20:54:35.175Z,100732.75
2022-11-03T20:57:03.904Z,100728.94
2022-11-03T20:59:34.612Z,100517.72
2022-11-03T21:02:10.708Z,100703.75
2022-11-03T21:04:45.234Z,100750.47
2022-11-03T21:07:13.690Z,100749.34
2022-11-03T21:09:43.902Z,100738.59
2022-11-03T21:12:13.946Z,100681.91
2022-11-03T21:15:04.314Z,100731.44
2022-11-03T21:17:54.525Z,100697.66
2022-11-03T21:20:25.105Z,100713.00
2022-11-03T21:22:55.194Z,100683.06
2022-11-03T21:25:25.264Z,100704.63
2022-11-03T21:27:54.232Z,100621.22
2022-11-03T21:30:21.954Z,100682.84
2022-11-03T21:32:48.793Z,100629.03
2022-11-03T21:35:24.726Z,100676.78
2022-11-03T21:37:52.407Z,100562.69
2022-11-03T21:40:21.832Z,100639.13
2022-11-03T21:43:09.873Z,100655.97
2022-11-03T21:45:42.177Z,100649.69
2022-11-03T21:48:28.398Z,100542.13
2022-11-03T21:51:15.548Z,100635.28
2022-11-03T21:53:42.292Z,100580.81
2022-11-03T21:56:14.354Z,100597.16
2022-11-03T21:58:42.864Z,100610.44
2022-11-03T22:01:20.348Z,100590.38
2022-11-03T22:03:47.946Z,100572.63
2022-11-03T22:06:18.325Z,100586.41
2022-11-03T22:08:45.122Z,100604.28
2022-11-03T22:11:23.952Z,100596.09
2022-11-03T22:13:58.985Z,100554.19
2022-11-03T22:16:40.058Z,100549.13
2022-11-03T22:19:30.005Z,100585.38
2022-11-03T22:22:15.819Z,100552.47
2022-11-03T22:25:03.971Z,100527.44
2022-11-03T22:27:37.762Z,100513.34
2022-11-03T22:30:24.134Z,100558.88
2022-11-03T22:32:53.270Z,100549.41
2022-11-03T22:35:39.776Z,100462.41
2022-11-03T22:38:13.595Z,100548.28
2022-11-03T22:40:59.859Z,100539.75
2022-11-03T22:43:47.969Z,100516.22
2022-11-03T22:46:18.507Z,100496.66
2022-11-03T22:48:45.207Z,100525.47
2022-11-03T22:51:18.606Z,100520.31
2022-11-03T22:54:05.569Z,100479.28
2022-11-03T22:56:32.693Z,100474.94
2022-11-03T22:58:59.399Z,100460.78
2022-11-03T23:01:32.387Z,100338.53
2022-11-03T23:03:59.095Z,100457.56
2022-11-03T23:06:27.697Z,100475.34
2022-11-03T23:08:58.458Z,100381.47
2022-11-03T23:11:35.834Z,100479.81
2022-11-03T23:14:09.050Z,100472.16
2022-11-03T23:16:43.966Z,100404.69
2022-11-03T23:19:38.004Z,100457.25
2022-11-03T23:22:06.054Z,100449.47
2022-11-03T23:24:54.308Z,100421.53
2022-11-03T23:27:21.026Z,100347.78
2022-11-03T23:29:47.682Z,100428.31
2022-11-03T23:32:14.452Z,100271.47
2022-11-03T23:34:41.161Z,100437.00
2022-11-03T23:37:07.976Z,100389.94
2022-11-03T23:39:35.979Z,100402.84
2022-11-03T23:42:06.124Z,100445.03
2022-11-03T23:44:52.896Z,100420.19
2022-11-03T23:47:43.682Z,100429.38
2022-11-03T23:50:10.435Z,100412.53
2022-11-03T23:52:37.254Z,100350.28
2022-11-03T23:55:07.615Z,100352.63
2022-11-03T23:57:52.901Z,100297.81
